createdAt,value
2023-12-23T00:00:14.338Z,96.08
2023-12-23T00:01:15.330Z,95.56
2023-12-23T00:02:15.321Z,95.56
2023-12-23T00:03:15.294Z,95.87
2023-12-23T00:04:15.238Z,95.98
2023-12-23T00:05:15.294Z,95.98
2023-12-23T00:06:15.249Z,95.98
2023-12-23T00:07:15.189Z,95.87
2023-12-23T00:08:15.238Z,95.98
2023-12-23T00:09:15.187Z,95.87
2023-12-23T00:10:15.221Z,95.87
2023-12-23T00:11:15.255Z,96.02
2023-12-23T00:12:15.183Z,95.87
2023-12-23T00:22:56.746Z,95.56
2023-12-23T00:23:57.666Z,95.56
2023-12-23T00:24:57.634Z,95.56
2023-12-23T00:25:57.662Z,95.87
2023-12-23T00:26:57.617Z,96.08
2023-12-23T00:27:57.649Z,95.98
2023-12-23T00:28:57.827Z,95.56
2023-12-23T00:32:53.218Z,95.87
2023-12-23T00:33:54.219Z,96.08
2023-12-23T00:34:54.244Z,96.28
2023-12-23T00:35:54.181Z,96.28
2023-12-23T00:36:54.184Z,96.59
2023-12-23T00:37:54.243Z,96.70
2023-12-23T00:38:54.144Z,96.70
2023-12-23T00:39:54.143Z,96.59
2023-12-23T00:40:54.145Z,96.49
2023-12-23T00:41:54.091Z,96.49
2023-12-23T00:42:54.104Z,96.59
2023-12-23T00:43:54.098Z,96.49
2023-12-23T00:44:54.059Z,96.49
2023-12-23T00:45:54.079Z,96.59
2023-12-23T00:46:54.130Z,96.59
2023-12-23T00:47:55.391Z,96.59
2023-12-23T00:48:54.829Z,96.49
2023-12-23T00:49:57.595Z,96.49
2023-12-23T00:50:54.020Z,96.49
2023-12-23T00:51:54.163Z,96.39
2023-12-23T00:57:57.547Z,96.70
2023-12-23T00:58:58.778Z,96.80
2023-12-23T00:59:58.522Z,96.91
2023-12-23T01:00:58.648Z,96.91
2023-12-23T01:01:58.573Z,96.91
2023-12-23T01:05:24.951Z,96.59
2023-12-23T01:06:26.114Z,96.59
2023-12-23T01:09:21.209Z,96.70
2023-12-23T01:10:20.261Z,96.59
2023-12-23T01:11:20.592Z,95.67
2023-12-23T01:14:39.695Z,94.90
2023-12-23T01:15:39.223Z,94.80
2023-12-23T01:16:39.218Z,94.28
2023-12-23T01:17:39.090Z,94.08
2023-12-23T01:18:39.076Z,94.38
2023-12-23T01:19:38.985Z,94.59
2023-12-23T01:20:38.913Z,94.70
2023-12-23T01:21:38.909Z,94.49
2023-12-23T01:22:42.443Z,94.90
2023-12-23T01:23:39.122Z,95.10
2023-12-23T01:24:40.194Z,95.00
2023-12-23T01:28:04.500Z,95.56
2023-12-23T01:29:06.449Z,95.62
2023-12-23T01:30:05.466Z,95.21
2023-12-23T01:31:05.468Z,95.10
2023-12-23T01:32:20.032Z,95.46
2023-12-23T01:33:05.513Z,95.77
2023-12-23T01:34:05.440Z,95.36
2023-12-23T01:35:05.452Z,95.36
2023-12-23T01:36:05.378Z,95.36
2023-12-23T01:37:05.364Z,95.15
2023-12-23T01:38:08.379Z,94.95
2023-12-23T01:39:05.353Z,93.40
2023-12-23T01:40:05.338Z,93.81
2023-12-23T01:41:05.408Z,94.23
2023-12-23T01:42:05.314Z,94.23
2023-12-23T01:43:06.389Z,94.64
2023-12-23T01:44:05.314Z,94.84
2023-12-23T01:45:06.019Z,95.05
2023-12-23T01:47:59.904Z,94.18
2023-12-23T01:49:00.895Z,94.12
2023-12-23T01:50:00.886Z,94.08
2023-12-23T01:51:00.838Z,94.32
2023-12-23T01:52:01.060Z,94.32
2023-12-23T01:53:01.538Z,94.53
2023-12-23T01:54:01.271Z,94.32
2023-12-23T01:55:01.028Z,94.12
2023-12-23T01:56:01.039Z,94.12
2023-12-23T01:57:00.765Z,93.91
2023-12-23T01:58:01.230Z,93.81
2023-12-23T02:03:01.710Z,94.02
2023-12-23T02:04:02.534Z,94.32
2023-12-23T02:05:02.662Z,94.32
2023-12-23T02:06:08.592Z,94.23
2023-12-23T02:07:02.513Z,94.43
2023-12-23T02:08:02.537Z,94.23
2023-12-23T02:09:02.522Z,94.12
2023-12-23T02:10:02.679Z,94.02
2023-12-23T02:11:02.510Z,94.12
2023-12-23T02:12:02.466Z,94.12
2023-12-23T02:13:09.947Z,94.02
2023-12-23T02:14:02.563Z,94.12
2023-12-23T02:15:02.472Z,94.53
2023-12-23T02:16:02.443Z,94.53
2023-12-23T02:17:02.473Z,94.64
2023-12-23T02:18:02.508Z,94.74
2023-12-23T02:19:11.697Z,95.05
2023-12-23T02:20:02.508Z,95.36
2023-12-23T02:21:02.341Z,95.56
2023-12-23T02:22:02.326Z,95.87
2023-12-23T02:23:02.345Z,95.87
2023-12-23T02:24:02.301Z,96.08
2023-12-23T02:25:02.283Z,96.28
2023-12-23T02:26:02.382Z,96.49
2023-12-23T02:27:02.247Z,96.59
2023-12-23T02:28:02.245Z,96.70
2023-12-23T02:29:02.265Z,96.70
2023-12-23T02:30:02.228Z,96.80
2023-12-23T02:31:02.339Z,96.91
2023-12-23T02:32:02.254Z,97.11
2023-12-23T02:33:02.944Z,97.21
2023-12-23T02:34:02.300Z,97.31
2023-12-23T02:35:02.258Z,97.52
2023-12-23T02:36:02.154Z,97.73
2023-12-23T02:37:02.166Z,97.94
2023-12-23T02:38:10.167Z,98.14
2023-12-23T02:39:02.104Z,98.45
2023-12-23T02:40:02.149Z,98.76
2023-12-23T02:41:02.078Z,99.11
2023-12-23T02:42:02.081Z,99.43
2023-12-23T02:43:02.098Z,99.84
2023-12-23T02:44:02.090Z,99.99
2023-12-23T02:45:02.067Z,99.99
2023-12-23T02:46:02.041Z,99.99
2023-12-23T02:47:02.074Z,99.99
2023-12-23T02:48:02.084Z,99.99
2023-12-23T02:49:02.064Z,99.99
2023-12-23T02:50:02.033Z,99.99
2023-12-23T02:51:01.952Z,99.99
2023-12-23T02:52:01.976Z,99.99
2023-12-23T02:53:02.009Z,99.99
2023-12-23T02:54:01.912Z,99.99
2023-12-23T02:55:01.905Z,99.99
2023-12-23T02:56:02.191Z,99.99
2023-12-23T02:57:01.899Z,99.99
2023-12-23T02:58:01.856Z,99.99
2023-12-23T02:59:01.920Z,99.99
2023-12-23T03:00:01.862Z,99.99
2023-12-23T03:01:01.864Z,99.99
2023-12-23T03:02:01.855Z,99.99
2023-12-23T03:03:01.849Z,99.99
2023-12-23T03:04:01.838Z,99.99
2023-12-23T03:07:54.068Z,99.99
2023-12-23T03:14:28.155Z,99.99
2023-12-23T03:15:29.382Z,99.99
2023-12-23T03:16:29.129Z,99.99
2023-12-23T03:21:24.497Z,99.99
2023-12-23T07:12:34.839Z,99.99
2023-12-23T11:10:49.241Z,99.99
2023-12-23T11:11:21.940Z,99.99
2023-12-23T11:47:08.787Z,99.99
2023-12-23T11:48:09.257Z,99.99
2023-12-23T11:49:09.228Z,99.99
2023-12-23T11:50:09.787Z,99.99
2023-12-23T11:51:09.148Z,99.99
2023-12-23T11:52:09.390Z,99.99
2023-12-23T11:53:09.207Z,99.99
2023-12-23T11:54:10.075Z,99.99
2023-12-23T11:55:09.115Z,99.99
2023-12-23T11:56:09.873Z,99.99
2023-12-23T11:57:09.078Z,99.99
2023-12-23T11:58:13.992Z,99.99
2023-12-23T11:59:37.754Z,99.99
2023-12-23T12:00:09.729Z,99.99
2023-12-23T12:01:09.036Z,99.99
2023-12-23T12:02:09.266Z,99.99
2023-12-23T12:03:09.033Z,99.99
2023-12-23T12:04:09.725Z,99.99
2023-12-23T12:05:09.177Z,99.99
2023-12-23T12:06:09.737Z,99.99
2023-12-23T12:07:09.449Z,99.99
2023-12-23T12:08:09.761Z,99.99
2023-12-23T14:29:50.439Z,88.90
2023-12-23T14:30:22.400Z,88.90
2023-12-23T14:31:25.243Z,89.21
2023-12-23T14:32:22.159Z,89.00
2023-12-23T14:33:22.364Z,89.00
2023-12-23T14:34:44.513Z,88.90
2023-12-23T14:35:34.011Z,89.11
2023-12-23T14:36:21.583Z,89.42
2023-12-23T14:37:22.517Z,89.51
2023-12-23T14:38:21.782Z,89.00
2023-12-23T14:39:25.291Z,89.11
2023-12-23T14:40:21.509Z,89.00
2023-12-23T14:41:22.018Z,89.21
2023-12-23T14:42:23.113Z,89.00
2023-12-23T14:45:17.869Z,89.42
2023-12-23T14:45:23.266Z,88.29
2023-12-23T14:46:24.999Z,88.70
2023-12-23T14:47:27.424Z,88.49
2023-12-23T14:48:24.056Z,88.90
2023-12-23T14:49:23.238Z,88.94
2023-12-23T14:50:24.723Z,88.90
2023-12-23T14:51:23.846Z,88.70
2023-12-23T14:52:24.244Z,88.59
2023-12-23T14:53:23.939Z,88.70
2023-12-23T14:54:53.530Z,88.18
2023-12-23T14:55:40.806Z,88.08
2023-12-23T14:56:24.162Z,87.98
2023-12-23T14:57:35.924Z,87.77
2023-12-23T14:58:23.139Z,88.18
2023-12-23T14:59:23.344Z,87.98
2023-12-23T15:00:23.099Z,87.77
2023-12-23T15:01:23.062Z,87.47
2023-12-23T15:02:23.157Z,87.57
2023-12-23T15:03:23.255Z,87.88
2023-12-23T15:04:23.670Z,87.98
2023-12-23T15:05:23.925Z,87.26
2023-12-23T15:06:23.301Z,87.37
2023-12-23T15:07:24.643Z,87.37
2023-12-23T15:08:23.172Z,87.57
2023-12-23T15:09:22.981Z,87.67
2023-12-23T15:10:23.222Z,87.88
2023-12-23T15:11:23.017Z,87.37
2023-12-23T15:12:23.075Z,87.37
2023-12-23T15:13:22.894Z,87.47
2023-12-23T15:14:23.898Z,87.57
2023-12-23T15:15:23.510Z,87.67
2023-12-23T15:16:22.885Z,87.67
2023-12-23T15:17:22.910Z,87.57
2023-12-23T15:18:22.888Z,87.88
2023-12-23T15:19:22.920Z,87.98
2023-12-23T15:20:22.866Z,88.18
2023-12-23T15:21:22.791Z,88.18
2023-12-23T15:22:22.778Z,88.39
2023-12-23T15:23:22.801Z,88.39
2023-12-23T15:24:22.769Z,88.39
2023-12-23T15:25:38.618Z,88.18
2023-12-23T15:26:22.759Z,88.29
2023-12-23T15:27:22.706Z,87.98
2023-12-23T15:28:22.704Z,87.88
2023-12-23T15:29:22.772Z,88.18
2023-12-23T15:30:22.988Z,88.39
2023-12-23T15:31:22.652Z,88.39
2023-12-23T15:32:22.768Z,88.74
2023-12-23T15:33:22.736Z,88.59
2023-12-23T15:34:22.694Z,88.64
2023-12-23T15:35:22.701Z,88.84
2023-12-23T15:36:22.643Z,88.84
2023-12-23T15:37:22.586Z,89.04
2023-12-23T15:38:22.646Z,89.04
2023-12-23T15:39:22.608Z,89.25
2023-12-23T15:40:22.557Z,89.36
2023-12-23T15:41:22.569Z,89.36
2023-12-23T15:42:22.553Z,89.45
2023-12-23T15:43:22.571Z,89.45
2023-12-23T15:44:22.528Z,89.36
2023-12-23T15:45:22.519Z,89.56
2023-12-23T15:46:22.467Z,89.66
2023-12-23T15:47:22.614Z,89.76
2023-12-23T15:48:23.765Z,89.76
2023-12-23T15:49:22.479Z,89.97
2023-12-23T15:50:22.448Z,89.97
2023-12-23T15:51:22.402Z,89.87
2023-12-23T15:52:22.493Z,89.76
2023-12-23T15:53:22.518Z,89.87
2023-12-23T15:54:22.644Z,89.97
2023-12-23T15:55:22.415Z,89.97
2023-12-23T15:56:22.455Z,89.97
2023-12-23T15:57:22.408Z,89.97
2023-12-23T15:58:22.411Z,89.66
2023-12-23T15:59:22.406Z,89.87
2023-12-23T16:00:22.309Z,90.07
2023-12-23T16:01:22.283Z,89.87
2023-12-23T16:02:22.347Z,90.07
2023-12-23T16:03:22.346Z,90.37
2023-12-23T16:04:22.326Z,90.58
2023-12-23T16:05:22.355Z,90.69
2023-12-23T16:06:22.310Z,91.20
2023-12-23T16:07:22.274Z,91.50
2023-12-23T16:08:22.310Z,92.06
2023-12-23T16:09:22.237Z,92.57
2023-12-23T16:10:22.233Z,93.08
2023-12-23T16:11:22.268Z,93.85
2023-12-23T16:12:22.178Z,94.26
2023-12-23T16:13:22.225Z,94.87
2023-12-23T16:14:22.244Z,95.39
2023-12-23T16:15:22.166Z,96.04
2023-12-23T16:16:22.282Z,96.56
2023-12-23T16:17:22.158Z,96.77
2023-12-23T16:18:22.413Z,96.87
2023-12-23T16:19:22.155Z,96.97
2023-12-23T16:20:22.144Z,97.28
2023-12-23T16:21:22.114Z,97.48
2023-12-23T16:22:22.102Z,97.99
2023-12-23T16:23:22.092Z,98.30
2023-12-23T16:24:22.075Z,98.86
2023-12-23T16:25:22.058Z,99.17
2023-12-23T16:26:22.116Z,99.38
2023-12-23T16:27:22.018Z,99.89
2023-12-23T16:28:22.034Z,99.99
2023-12-23T16:29:22.040Z,99.99
2023-12-23T16:30:22.143Z,99.99
2023-12-23T16:31:21.978Z,99.99
2023-12-23T16:32:22.087Z,99.99
2023-12-23T16:33:22.001Z,99.99
2023-12-23T16:34:22.023Z,99.99
2023-12-23T16:35:22.067Z,99.99
2023-12-23T16:36:21.897Z,99.99
2023-12-23T16:37:24.834Z,99.99
2023-12-23T16:38:22.068Z,99.99
2023-12-23T16:39:21.858Z,99.99
2023-12-23T16:40:21.833Z,99.99
2023-12-23T16:41:21.898Z,99.99
2023-12-23T16:42:23.026Z,99.99
2023-12-23T16:43:21.813Z,99.99
2023-12-23T16:44:21.873Z,99.99
2023-12-23T16:45:23.438Z,99.99
2023-12-23T16:46:21.836Z,99.99
2023-12-23T16:47:21.884Z,99.99
2023-12-23T16:48:22.027Z,99.99
2023-12-23T16:49:21.814Z,99.99
2023-12-23T16:50:21.997Z,99.99
2023-12-23T16:51:21.749Z,99.99
2023-12-23T16:52:22.593Z,99.99
2023-12-23T16:53:24.899Z,99.99
2023-12-23T16:54:21.676Z,99.99
2023-12-23T16:55:30.644Z,99.99
2023-12-23T16:56:21.676Z,99.99
2023-12-23T16:57:21.637Z,99.99
2023-12-23T16:58:21.612Z,99.99
2023-12-23T16:59:28.881Z,99.99
2023-12-23T17:00:22.252Z,99.99
2023-12-23T17:01:21.790Z,99.99
2023-12-23T17:02:23.383Z,99.99
2023-12-23T17:03:21.557Z,99.99
2023-12-23T17:04:21.551Z,99.99
2023-12-23T17:05:21.613Z,99.99
2023-12-23T17:06:21.599Z,99.99
2023-12-23T17:07:21.501Z,99.99
2023-12-23T17:08:21.688Z,99.99
2023-12-23T17:09:21.521Z,99.99
2023-12-23T17:10:21.474Z,99.99
2023-12-23T17:11:21.530Z,99.99
2023-12-23T17:12:21.434Z,99.99
2023-12-23T17:13:21.428Z,99.99
2023-12-23T17:14:21.473Z,99.99
2023-12-23T17:15:21.448Z,99.99
2023-12-23T17:16:21.413Z,99.99
2023-12-23T17:17:21.417Z,99.99
2023-12-23T17:18:21.718Z,99.99
2023-12-23T17:19:21.428Z,99.99
2023-12-23T17:20:21.430Z,99.99
2023-12-23T17:21:21.486Z,99.99
2023-12-23T17:22:23.699Z,99.99
2023-12-23T17:23:22.022Z,99.99
2023-12-23T17:24:21.336Z,99.99
2023-12-23T17:33:18.442Z,99.99
2023-12-23T17:33:24.028Z,99.99
2023-12-23T17:34:23.956Z,99.99
2023-12-23T17:35:23.897Z,99.99
2023-12-23T17:36:23.854Z,99.99
2023-12-23T17:37:24.775Z,99.99
2023-12-23T17:38:23.849Z,99.99
2023-12-23T17:39:23.850Z,99.99
2023-12-23T17:40:23.796Z,99.99
2023-12-23T17:41:23.801Z,99.99
2023-12-23T17:42:24.682Z,99.99
2023-12-23T17:43:23.765Z,99.99
2023-12-23T17:44:23.801Z,99.99
2023-12-23T17:45:23.763Z,99.99
2023-12-23T17:46:23.777Z,99.99
2023-12-23T17:47:24.719Z,99.99
2023-12-23T17:48:23.756Z,99.99
2023-12-23T17:49:23.854Z,99.99
2023-12-23T17:50:23.691Z,99.99
2023-12-23T17:51:23.701Z,99.99
2023-12-23T17:52:23.642Z,99.99
2023-12-23T17:53:25.302Z,99.99
2023-12-23T17:54:23.623Z,99.99
2023-12-23T17:55:23.607Z,99.99
2023-12-23T17:56:23.686Z,99.99
2023-12-23T17:57:23.604Z,99.99
2023-12-23T17:58:23.602Z,99.99
2023-12-23T17:59:23.631Z,99.99
2023-12-23T18:00:23.625Z,99.99
2023-12-23T18:01:23.540Z,99.99
2023-12-23T18:02:23.547Z,99.99
2023-12-23T18:03:23.579Z,99.99
2023-12-23T18:04:23.536Z,99.99
2023-12-23T18:05:23.529Z,99.99
2023-12-23T18:06:23.521Z,99.99
2023-12-23T18:07:24.596Z,99.99
2023-12-23T18:08:23.505Z,99.99
2023-12-23T18:09:23.710Z,99.99
2023-12-23T18:10:23.676Z,99.99
2023-12-23T18:11:23.421Z,99.99
2023-12-23T18:12:23.396Z,99.99
2023-12-23T18:13:23.394Z,99.99
2023-12-23T18:14:23.578Z,99.99
2023-12-23T18:15:23.381Z,99.99
2023-12-23T18:16:23.386Z,99.99
2023-12-23T18:17:23.389Z,99.99
2023-12-23T18:18:23.954Z,99.99
2023-12-23T18:19:23.522Z,99.99
2023-12-23T18:20:23.314Z,99.99
2023-12-23T18:21:23.805Z,99.99
2023-12-23T18:22:23.293Z,99.99
2023-12-23T18:23:24.890Z,99.99
2023-12-23T18:24:23.260Z,99.99
2023-12-23T18:25:23.245Z,99.99
2023-12-23T18:26:23.496Z,99.99
2023-12-23T18:27:23.249Z,99.99
2023-12-23T18:28:23.220Z,99.99
2023-12-23T18:29:23.395Z,99.99
2023-12-23T18:30:23.200Z,99.99
2023-12-23T18:31:23.155Z,99.99
2023-12-23T18:32:23.232Z,99.99
2023-12-23T18:33:23.319Z,99.99
2023-12-23T18:34:23.340Z,99.99
2023-12-23T18:35:23.427Z,99.99
2023-12-23T18:36:23.102Z,99.99
2023-12-23T18:37:23.076Z,99.99
2023-12-23T18:38:23.075Z,99.99
2023-12-23T18:39:23.092Z,99.99
2023-12-23T18:40:23.064Z,99.99
2023-12-23T18:41:23.081Z,99.99
2023-12-23T18:42:24.730Z,99.99
2023-12-23T18:43:37.518Z,99.99
2023-12-23T18:44:23.215Z,99.99
2023-12-23T18:45:23.301Z,99.99
2023-12-23T18:46:22.991Z,99.99
2023-12-23T18:47:23.163Z,99.99
2023-12-23T18:48:22.996Z,99.99
2023-12-23T18:49:22.932Z,99.99
2023-12-23T18:50:23.777Z,99.99
2023-12-23T18:51:22.916Z,99.99
2023-12-23T18:52:22.890Z,99.99
2023-12-23T18:53:22.920Z,99.84
2023-12-23T18:54:22.850Z,99.43
2023-12-23T18:55:23.764Z,99.43
2023-12-23T18:56:22.864Z,99.43
2023-12-23T18:57:22.881Z,99.12
2023-12-23T18:58:22.869Z,98.92
2023-12-23T18:59:23.523Z,99.02
2023-12-23T19:00:22.839Z,99.22
2023-12-23T19:01:22.815Z,99.43
2023-12-23T19:02:24.850Z,99.33
2023-12-23T19:03:23.309Z,99.33
2023-12-23T19:04:22.761Z,99.63
2023-12-23T19:05:22.795Z,99.84
2023-12-23T19:06:22.934Z,99.99
2023-12-23T19:07:22.691Z,99.99
2023-12-23T19:08:22.739Z,99.99
2023-12-23T19:09:22.776Z,99.99
2023-12-23T19:10:22.663Z,99.99
2023-12-23T19:11:22.760Z,99.99
2023-12-23T19:12:33.292Z,99.99
2023-12-23T19:13:23.577Z,99.99
2023-12-23T19:14:22.732Z,99.99
2023-12-23T19:15:22.614Z,99.99
2023-12-23T19:16:22.587Z,99.99
2023-12-23T19:17:22.724Z,99.99
2023-12-23T19:18:22.595Z,99.99
2023-12-23T19:19:22.584Z,99.99
2023-12-23T19:20:22.605Z,99.99
2023-12-23T19:21:22.557Z,99.99
2023-12-23T19:22:22.515Z,99.99
2023-12-23T19:23:22.527Z,99.99
2023-12-23T19:24:22.738Z,99.99
2023-12-23T19:25:22.494Z,99.99
2023-12-23T19:26:26.295Z,99.74
2023-12-23T19:29:23.537Z,99.74
2023-12-23T19:35:40.519Z,99.63
2023-12-23T19:36:41.496Z,99.08
2023-12-23T19:37:43.072Z,99.18
2023-12-23T19:38:46.291Z,99.08
2023-12-23T19:44:51.979Z,99.95
2023-12-23T19:48:21.143Z,99.99
2023-12-23T19:49:21.969Z,99.99
2023-12-23T19:50:23.690Z,99.99
2023-12-23T19:51:19.296Z,99.99
2023-12-23T19:52:19.268Z,99.95
2023-12-23T19:53:20.081Z,99.95
2023-12-23T19:54:18.553Z,99.74
2023-12-23T19:55:21.945Z,98.97
2023-12-23T19:56:18.708Z,98.77
2023-12-23T20:01:12.146Z,97.95
2023-12-23T20:01:19.173Z,97.64
2023-12-23T20:02:17.602Z,97.74
2023-12-23T20:03:17.565Z,97.64
2023-12-23T20:04:17.757Z,97.23
2023-12-23T20:05:22.715Z,97.23
2023-12-23T20:06:17.560Z,97.44
2023-12-23T20:07:17.507Z,97.13
2023-12-23T20:08:17.798Z,96.62
2023-12-23T20:09:18.067Z,96.31
2023-12-23T20:10:18.142Z,96.51
2023-12-23T20:14:33.987Z,96.72
2023-12-23T20:15:38.674Z,96.92
2023-12-23T20:16:33.930Z,96.72
2023-12-23T20:17:48.091Z,96.72
2023-12-23T20:23:46.067Z,96.41
2023-12-23T20:24:21.659Z,97.13
2023-12-23T20:25:19.497Z,97.03
2023-12-23T20:25:52.241Z,96.92
2023-12-23T20:26:52.284Z,96.82
2023-12-23T20:27:54.860Z,96.92
2023-12-23T20:28:51.771Z,96.31
2023-12-23T20:29:51.636Z,95.54
2023-12-23T20:31:05.640Z,95.44
2023-12-23T20:31:51.586Z,95.44
2023-12-23T20:35:29.844Z,95.34
2023-12-23T20:38:33.500Z,94.83
2023-12-23T20:39:34.152Z,94.83
2023-12-23T20:40:34.363Z,94.83
2023-12-23T20:41:34.180Z,94.32
2023-12-23T20:42:34.180Z,94.52
2023-12-23T20:43:34.076Z,94.21
2023-12-23T20:44:34.341Z,94.11
2023-12-23T20:45:34.076Z,93.25
2023-12-23T20:46:34.091Z,92.94
2023-12-23T20:47:34.920Z,92.53
2023-12-23T20:48:49.778Z,92.53
2023-12-23T20:51:51.649Z,92.12
2023-12-23T20:53:00.501Z,92.63
2023-12-23T20:53:51.656Z,92.63
2023-12-23T20:54:51.825Z,92.53
2023-12-23T20:55:53.193Z,91.91
2023-12-23T20:56:54.348Z,92.02
2023-12-23T21:03:07.046Z,90.48
2023-12-23T21:04:08.662Z,90.48
2023-12-23T21:05:07.913Z,90.48
2023-12-23T21:06:20.035Z,89.83
2023-12-23T21:07:08.508Z,89.72
2023-12-23T21:08:08.558Z,89.72
2023-12-23T21:09:08.503Z,89.97
2023-12-23T21:10:12.522Z,89.92
2023-12-23T21:11:08.915Z,89.11
2023-12-23T21:12:19.578Z,89.51
2023-12-23T21:13:07.745Z,89.62
2023-12-23T21:14:08.458Z,90.07
2023-12-23T21:15:07.971Z,90.07
2023-12-23T21:16:07.930Z,90.37
2023-12-23T21:17:09.095Z,90.17
2023-12-23T21:18:07.695Z,90.07
2023-12-23T21:19:07.760Z,89.97
2023-12-23T21:20:07.784Z,89.97
2023-12-23T21:21:07.642Z,90.17
2023-12-23T21:22:07.618Z,89.76
2023-12-23T21:23:07.628Z,89.45
2023-12-23T21:24:07.605Z,89.56
2023-12-23T21:25:08.650Z,89.45
2023-12-23T21:26:07.602Z,89.56
2023-12-23T21:27:07.775Z,89.76
2023-12-23T21:28:08.297Z,89.66
2023-12-23T21:29:08.320Z,89.36
2023-12-23T21:30:07.514Z,89.36
2023-12-23T21:31:19.292Z,89.45
2023-12-23T21:32:09.616Z,89.87
2023-12-23T21:33:08.601Z,89.76
2023-12-23T21:34:11.118Z,89.87
2023-12-23T21:35:07.469Z,89.25
2023-12-23T21:36:07.445Z,89.04
2023-12-23T21:37:07.449Z,89.25
2023-12-23T21:38:13.506Z,88.84
2023-12-23T21:39:07.930Z,88.94
2023-12-23T21:40:07.529Z,89.04
2023-12-23T21:41:07.555Z,89.36
2023-12-23T21:42:07.554Z,89.36
2023-12-23T21:43:07.565Z,89.36
2023-12-23T21:44:08.229Z,89.36
2023-12-23T21:45:07.433Z,89.25
2023-12-23T21:46:07.548Z,89.15
2023-12-23T21:47:21.421Z,89.36
2023-12-23T21:48:07.547Z,89.66
2023-12-23T21:49:07.519Z,89.36
2023-12-23T21:50:07.941Z,89.04
2023-12-23T21:51:07.302Z,89.15
2023-12-23T21:52:07.236Z,89.15
2023-12-23T21:53:07.274Z,89.04
2023-12-23T21:54:07.227Z,89.36
2023-12-23T21:55:07.221Z,89.36
2023-12-23T21:56:07.260Z,89.15
2023-12-23T21:57:07.185Z,88.74
2023-12-23T21:58:07.398Z,88.53
2023-12-23T21:59:07.203Z,88.74
2023-12-23T22:00:07.141Z,88.74
2023-12-23T22:01:21.227Z,88.84
2023-12-23T22:02:07.206Z,88.94
2023-12-23T22:03:07.393Z,88.84
2023-12-23T22:04:07.306Z,88.94
2023-12-23T22:05:07.267Z,89.04
2023-12-23T22:06:07.434Z,89.25
2023-12-23T22:07:35.683Z,89.36
2023-12-23T22:08:07.154Z,89.25
2023-12-23T22:09:07.031Z,89.25
2023-12-23T22:10:07.015Z,89.56
2023-12-23T22:11:07.034Z,89.45
2023-12-23T22:12:06.971Z,89.36
2023-12-23T22:13:07.006Z,89.70
2023-12-23T22:14:07.004Z,89.66
2023-12-23T22:15:07.081Z,89.25
2023-12-23T22:16:07.131Z,88.74
2023-12-23T22:17:06.931Z,88.33
2023-12-23T22:18:17.075Z,88.64
2023-12-23T22:19:06.892Z,88.64
2023-12-23T22:20:06.942Z,88.64
2023-12-23T22:21:06.852Z,88.43
2023-12-23T22:22:06.852Z,88.33
2023-12-23T22:23:06.871Z,88.33
2023-12-23T22:24:06.837Z,88.33
2023-12-23T22:25:06.827Z,88.33
2023-12-23T22:26:06.838Z,88.64
2023-12-23T22:27:06.786Z,88.64
2023-12-23T22:28:06.773Z,88.84
2023-12-23T22:29:06.808Z,88.53
2023-12-23T22:30:07.039Z,88.33
2023-12-23T22:31:07.701Z,88.33
2023-12-23T22:32:06.768Z,88.78
2023-12-23T22:33:06.892Z,88.78
2023-12-23T22:34:06.802Z,88.78
2023-12-23T22:35:06.725Z,88.78
2023-12-23T22:36:06.689Z,88.57
2023-12-23T22:37:07.391Z,88.57
2023-12-23T22:38:06.682Z,88.57
2023-12-23T22:39:06.631Z,88.57
2023-12-23T22:40:06.866Z,88.88
2023-12-23T22:41:06.744Z,88.57
2023-12-23T22:42:06.612Z,88.27
2023-12-23T22:43:06.609Z,88.47
2023-12-23T22:44:06.598Z,88.47
2023-12-23T22:45:06.578Z,88.78
2023-12-23T22:46:06.537Z,89.09
2023-12-23T22:47:06.676Z,88.98
2023-12-23T22:48:06.808Z,88.47
2023-12-23T22:49:06.521Z,88.27
2023-12-23T22:50:06.526Z,88.57
2023-12-23T22:51:06.509Z,88.78
2023-12-23T22:52:06.498Z,88.68
2023-12-23T22:53:06.553Z,88.78
2023-12-23T22:54:08.612Z,88.68
2023-12-23T22:55:06.482Z,88.68
2023-12-23T22:56:06.458Z,88.37
2023-12-23T22:57:06.414Z,88.47
2023-12-23T22:58:06.442Z,88.88
2023-12-23T22:59:06.465Z,89.19
2023-12-23T23:00:06.412Z,89.23
2023-12-23T23:01:06.439Z,89.13
2023-12-23T23:02:06.381Z,89.23
2023-12-23T23:03:06.483Z,88.68
2023-12-23T23:04:06.322Z,88.68
2023-12-23T23:05:06.390Z,88.68
2023-12-23T23:06:06.394Z,88.98
2023-12-23T23:07:06.302Z,88.88
2023-12-23T23:08:06.291Z,88.92
2023-12-23T23:09:06.253Z,88.82
2023-12-23T23:10:06.250Z,89.13
2023-12-23T23:11:06.267Z,89.33
2023-12-23T23:12:06.295Z,89.23
2023-12-23T23:13:16.243Z,89.13
2023-12-23T23:14:06.243Z,89.13
2023-12-23T23:15:06.197Z,89.43
2023-12-23T23:16:06.165Z,89.64
2023-12-23T23:17:06.191Z,89.43
2023-12-23T23:18:06.345Z,89.54
2023-12-23T23:19:06.274Z,89.54
2023-12-23T23:20:06.215Z,89.43
2023-12-23T23:21:06.168Z,89.29
2023-12-23T23:22:06.104Z,89.33
2023-12-23T23:23:06.133Z,89.43
2023-12-23T23:24:06.087Z,89.43
2023-12-23T23:25:06.099Z,89.54
2023-12-23T23:26:06.091Z,89.33
2023-12-23T23:27:06.027Z,89.54
2023-12-23T23:28:06.036Z,89.64
2023-12-23T23:29:06.039Z,89.75
2023-12-23T23:30:06.023Z,89.84
2023-12-23T23:31:06.020Z,90.05
2023-12-23T23:32:06.010Z,90.05
2023-12-23T23:33:06.049Z,90.16
2023-12-23T23:34:05.975Z,89.95
2023-12-23T23:35:11.442Z,90.05
2023-12-23T23:36:05.953Z,90.26
2023-12-23T23:37:05.899Z,90.77
2023-12-23T23:38:06.047Z,90.56
2023-12-23T23:39:05.912Z,90.67
2023-12-23T23:40:05.895Z,90.97
2023-12-23T23:41:05.891Z,91.18
2023-12-23T23:42:05.870Z,91.38
2023-12-23T23:43:05.840Z,91.18
2023-12-23T23:44:05.872Z,91.28
2023-12-23T23:45:05.837Z,91.38
2023-12-23T23:46:05.814Z,91.49
2023-12-23T23:47:06.513Z,91.18
2023-12-23T23:48:05.849Z,91.08
